sensor_id;sensor_type;location;lat;lon;timestamp;P1;durP1;ratioP1;P2;durP2;ratioP2
68176;SDS011;56478;50.982;7.032;2023-09-19T00:00:42;5.93;;;2.15;;
68176;SDS011;56478;50.982;7.032;2023-09-19T00:03:09;3.75;;;2.00;;
68176;SDS011;56478;50.982;7.032;2023-09-19T00:05:37;3.25;;;2.00;;
68176;SDS011;56478;50.982;7.032;2023-09-19T00:08:09;4.80;;;2.10;;
68176;SDS011;56478;50.982;7.032;2023-09-19T00:10:35;3.65;;;2.15;;
68176;SDS011;56478;50.982;7.032;2023-09-19T00:13:02;4.85;;;2.08;;
68176;SDS011;56478;50.982;7.032;2023-09-19T00:15:37;2.72;;;1.70;;
68176;SDS011;56478;50.982;7.032;2023-09-19T00:18:04;8.23;;;2.20;;
68176;SDS011;56478;50.982;7.032;2023-09-19T00:20:37;5.00;;;1.98;;
68176;SDS011;56478;50.982;7.032;2023-09-19T00:23:03;10.32;;;2.30;;
68176;SDS011;56478;50.982;7.032;2023-09-19T00:25:37;4.15;;;2.20;;
68176;SDS011;56478;50.982;7.032;2023-09-19T00:28:03;7.00;;;2.78;;
68176;SDS011;56478;50.982;7.032;2023-09-19T00:30:32;5.88;;;2.05;;
68176;SDS011;56478;50.982;7.032;2023-09-19T00:32:59;4.55;;;2.10;;
68176;SDS011;56478;50.982;7.032;2023-09-19T00:35:26;4.25;;;2.25;;
68176;SDS011;56478;50.982;7.032;2023-09-19T00:37:52;5.18;;;2.08;;
68176;SDS011;56478;50.982;7.032;2023-09-19T00:40:19;6.15;;;2.00;;
68176;SDS011;56478;50.982;7.032;2023-09-19T00:42:46;5.60;;;2.20;;
68176;SDS011;56478;50.982;7.032;2023-09-19T00:45:14;4.75;;;2.15;;
68176;SDS011;56478;50.982;7.032;2023-09-19T00:47:41;4.95;;;2.00;;
68176;SDS011;56478;50.982;7.032;2023-09-19T00:50:09;6.32;;;2.40;;
68176;SDS011;56478;50.982;7.032;2023-09-19T00:52:38;3.78;;;2.10;;
68176;SDS011;56478;50.982;7.032;2023-09-19T00:55:10;4.95;;;2.10;;
68176;SDS011;56478;50.982;7.032;2023-09-19T00:57:39;5.07;;;2.05;;
68176;SDS011;56478;50.982;7.032;2023-09-19T01:00:08;8.10;;;2.35;;
68176;SDS011;56478;50.982;7.032;2023-09-19T01:02:43;4.55;;;2.10;;
68176;SDS011;56478;50.982;7.032;2023-09-19T01:05:10;4.70;;;2.08;;
68176;SDS011;56478;50.982;7.032;2023-09-19T01:07:37;6.75;;;2.25;;
68176;SDS011;56478;50.982;7.032;2023-09-19T01:12:45;5.38;;;2.25;;
68176;SDS011;56478;50.982;7.032;2023-09-19T01:26:49;9.63;;;2.70;;
68176;SDS011;56478;50.982;7.032;2023-09-19T01:29:23;6.10;;;2.17;;
68176;SDS011;56478;50.982;7.032;2023-09-19T01:32:03;4.18;;;1.80;;
68176;SDS011;56478;50.982;7.032;2023-09-19T01:35:12;6.72;;;1.80;;
68176;SDS011;56478;50.982;7.032;2023-09-19T01:37:21;4.72;;;2.05;;
68176;SDS011;56478;50.982;7.032;2023-09-19T01:40:02;4.45;;;1.92;;
68176;SDS011;56478;50.982;7.032;2023-09-19T01:47:52;4.50;;;2.13;;
68176;SDS011;56478;50.982;7.032;2023-09-19T01:53:10;6.10;;;2.10;;
68176;SDS011;56478;50.982;7.032;2023-09-19T01:55:46;3.92;;;2.20;;
68176;SDS011;56478;50.982;7.032;2023-09-19T02:01:22;6.05;;;2.30;;
68176;SDS011;56478;50.982;7.032;2023-09-19T02:03:50;7.50;;;2.17;;
68176;SDS011;56478;50.982;7.032;2023-09-19T02:06:16;6.60;;;2.35;;
68176;SDS011;56478;50.982;7.032;2023-09-19T02:08:43;7.47;;;2.38;;
68176;SDS011;56478;50.982;7.032;2023-09-19T02:11:10;5.03;;;2.30;;
68176;SDS011;56478;50.982;7.032;2023-09-19T02:13:36;3.92;;;2.00;;
68176;SDS011;56478;50.982;7.032;2023-09-19T02:16:03;4.15;;;2.35;;
68176;SDS011;56478;50.982;7.032;2023-09-19T02:18:29;5.03;;;2.20;;
68176;SDS011;56478;50.982;7.032;2023-09-19T02:20:56;10.20;;;2.08;;
68176;SDS011;56478;50.982;7.032;2023-09-19T02:23:24;12.07;;;2.50;;
68176;SDS011;56478;50.982;7.032;2023-09-19T02:25:59;8.68;;;2.20;;
68176;SDS011;56478;50.982;7.032;2023-09-19T02:28:30;9.15;;;2.35;;
68176;SDS011;56478;50.982;7.032;2023-09-19T02:30:57;5.57;;;2.35;;
68176;SDS011;56478;50.982;7.032;2023-09-19T02:33:23;12.98;;;2.50;;
68176;SDS011;56478;50.982;7.032;2023-09-19T02:35:49;6.78;;;2.28;;
68176;SDS011;56478;50.982;7.032;2023-09-19T02:38:15;3.97;;;2.10;;
68176;SDS011;56478;50.982;7.032;2023-09-19T02:40:46;8.60;;;2.38;;
68176;SDS011;56478;50.982;7.032;2023-09-19T02:43:12;11.13;;;2.15;;
68176;SDS011;56478;50.982;7.032;2023-09-19T02:45:38;7.68;;;2.22;;
68176;SDS011;56478;50.982;7.032;2023-09-19T02:48:04;7.60;;;2.20;;
68176;SDS011;56478;50.982;7.032;2023-09-19T02:50:29;6.68;;;2.00;;
68176;SDS011;56478;50.982;7.032;2023-09-19T02:52:55;6.65;;;2.20;;
68176;SDS011;56478;50.982;7.032;2023-09-19T02:55:21;12.02;;;2.50;;
68176;SDS011;56478;50.982;7.032;2023-09-19T02:57:50;8.52;;;2.30;;
68176;SDS011;56478;50.982;7.032;2023-09-19T03:00:17;9.50;;;2.40;;
68176;SDS011;56478;50.982;7.032;2023-09-19T03:02:50;6.80;;;2.20;;
68176;SDS011;56478;50.982;7.032;2023-09-19T03:05:18;8.18;;;2.05;;
68176;SDS011;56478;50.982;7.032;2023-09-19T03:07:44;8.15;;;2.22;;
68176;SDS011;56478;50.982;7.032;2023-09-19T03:10:16;7.03;;;2.25;;
68176;SDS011;56478;50.982;7.032;2023-09-19T03:12:46;7.30;;;2.28;;
68176;SDS011;56478;50.982;7.032;2023-09-19T03:15:12;9.43;;;2.30;;
68176;SDS011;56478;50.982;7.032;2023-09-19T03:17:40;8.57;;;2.03;;
68176;SDS011;56478;50.982;7.032;2023-09-19T03:20:11;9.50;;;2.38;;
68176;SDS011;56478;50.982;7.032;2023-09-19T03:22:39;5.10;;;2.33;;
68176;SDS011;56478;50.982;7.032;2023-09-19T03:25:05;7.28;;;2.33;;
68176;SDS011;56478;50.982;7.032;2023-09-19T03:27:36;7.70;;;2.60;;
68176;SDS011;56478;50.982;7.032;2023-09-19T03:30:03;6.80;;;2.28;;
68176;SDS011;56478;50.982;7.032;2023-09-19T03:32:36;6.05;;;2.17;;
68176;SDS011;56478;50.982;7.032;2023-09-19T03:35:08;6.20;;;2.28;;
68176;SDS011;56478;50.982;7.032;2023-09-19T03:37:36;5.50;;;2.27;;
68176;SDS011;56478;50.982;7.032;2023-09-19T03:40:02;4.90;;;2.45;;
68176;SDS011;56478;50.982;7.032;2023-09-19T03:42:30;5.85;;;2.33;;
68176;SDS011;56478;50.982;7.032;2023-09-19T03:44:56;10.35;;;2.47;;
68176;SDS011;56478;50.982;7.032;2023-09-19T03:47:22;5.32;;;1.90;;
68176;SDS011;56478;50.982;7.032;2023-09-19T03:49:47;7.28;;;2.28;;
68176;SDS011;56478;50.982;7.032;2023-09-19T03:52:13;5.82;;;2.20;;
68176;SDS011;56478;50.982;7.032;2023-09-19T03:54:41;5.60;;;2.40;;
68176;SDS011;56478;50.982;7.032;2023-09-19T03:57:06;11.15;;;2.60;;
68176;SDS011;56478;50.982;7.032;2023-09-19T03:59:32;12.00;;;2.45;;
68176;SDS011;56478;50.982;7.032;2023-09-19T04:01:58;8.05;;;2.30;;
68176;SDS011;56478;50.982;7.032;2023-09-19T04:04:24;10.05;;;2.80;;
68176;SDS011;56478;50.982;7.032;2023-09-19T04:06:50;7.75;;;2.20;;
68176;SDS011;56478;50.982;7.032;2023-09-19T04:09:16;7.13;;;2.42;;
68176;SDS011;56478;50.982;7.032;2023-09-19T04:11:42;10.07;;;2.30;;
68176;SDS011;56478;50.982;7.032;2023-09-19T04:14:07;7.00;;;2.40;;
68176;SDS011;56478;50.982;7.032;2023-09-19T04:16:33;6.78;;;2.30;;
68176;SDS011;56478;50.982;7.032;2023-09-19T04:18:58;11.20;;;2.58;;
68176;SDS011;56478;50.982;7.032;2023-09-19T04:21:24;7.47;;;2.33;;
68176;SDS011;56478;50.982;7.032;2023-09-19T04:23:49;5.18;;;2.10;;
68176;SDS011;56478;50.982;7.032;2023-09-19T04:26:15;9.05;;;2.58;;
68176;SDS011;56478;50.982;7.032;2023-09-19T04:28:41;9.82;;;2.30;;
68176;SDS011;56478;50.982;7.032;2023-09-19T04:31:09;9.32;;;2.53;;
68176;SDS011;56478;50.982;7.032;2023-09-19T04:33:35;10.13;;;2.63;;
68176;SDS011;56478;50.982;7.032;2023-09-19T04:36:01;9.75;;;2.42;;
68176;SDS011;56478;50.982;7.032;2023-09-19T04:38:28;7.55;;;2.38;;
68176;SDS011;56478;50.982;7.032;2023-09-19T04:40:57;10.13;;;2.33;;
68176;SDS011;56478;50.982;7.032;2023-09-19T04:43:24;8.43;;;2.05;;
68176;SDS011;56478;50.982;7.032;2023-09-19T04:45:50;8.43;;;2.55;;
68176;SDS011;56478;50.982;7.032;2023-09-19T04:48:16;10.43;;;2.40;;
68176;SDS011;56478;50.982;7.032;2023-09-19T04:50:41;9.02;;;2.58;;
68176;SDS011;56478;50.982;7.032;2023-09-19T04:53:08;7.05;;;2.33;;
68176;SDS011;56478;50.982;7.032;2023-09-19T04:55:33;6.53;;;2.45;;
68176;SDS011;56478;50.982;7.032;2023-09-19T04:57:59;6.53;;;2.60;;
68176;SDS011;56478;50.982;7.032;2023-09-19T05:00:25;8.18;;;2.50;;
68176;SDS011;56478;50.982;7.032;2023-09-19T05:02:54;9.45;;;2.40;;
68176;SDS011;56478;50.982;7.032;2023-09-19T05:07:47;8.38;;;2.42;;
68176;SDS011;56478;50.982;7.032;2023-09-19T05:10:13;7.18;;;2.42;;
68176;SDS011;56478;50.982;7.032;2023-09-19T05:12:40;12.32;;;2.80;;
68176;SDS011;56478;50.982;7.032;2023-09-19T05:15:06;8.05;;;2.75;;
68176;SDS011;56478;50.982;7.032;2023-09-19T05:17:32;9.05;;;2.58;;
68176;SDS011;56478;50.982;7.032;2023-09-19T05:20:04;7.97;;;2.55;;
68176;SDS011;56478;50.982;7.032;2023-09-19T05:22:41;10.23;;;2.40;;
68176;SDS011;56478;50.982;7.032;2023-09-19T05:25:08;9.55;;;2.50;;
68176;SDS011;56478;50.982;7.032;2023-09-19T05:27:35;8.57;;;2.80;;
68176;SDS011;56478;50.982;7.032;2023-09-19T05:30:00;9.68;;;2.47;;
68176;SDS011;56478;50.982;7.032;2023-09-19T05:32:26;9.55;;;2.78;;
68176;SDS011;56478;50.982;7.032;2023-09-19T05:34:51;10.20;;;2.67;;
68176;SDS011;56478;50.982;7.032;2023-09-19T05:37:18;9.48;;;2.60;;
68176;SDS011;56478;50.982;7.032;2023-09-19T05:39:44;6.82;;;2.40;;
68176;SDS011;56478;50.982;7.032;2023-09-19T05:42:10;12.30;;;2.85;;
68176;SDS011;56478;50.982;7.032;2023-09-19T05:44:35;8.40;;;2.45;;
68176;SDS011;56478;50.982;7.032;2023-09-19T05:47:02;6.88;;;2.63;;
68176;SDS011;56478;50.982;7.032;2023-09-19T05:49:28;11.10;;;2.58;;
68176;SDS011;56478;50.982;7.032;2023-09-19T05:51:53;6.97;;;2.60;;
68176;SDS011;56478;50.982;7.032;2023-09-19T05:54:21;7.72;;;2.67;;
68176;SDS011;56478;50.982;7.032;2023-09-19T05:56:47;5.75;;;2.28;;
68176;SDS011;56478;50.982;7.032;2023-09-19T05:59:13;10.73;;;2.80;;
68176;SDS011;56478;50.982;7.032;2023-09-19T06:01:43;7.57;;;2.55;;
68176;SDS011;56478;50.982;7.032;2023-09-19T06:04:09;7.55;;;2.50;;
68176;SDS011;56478;50.982;7.032;2023-09-19T06:06:35;8.60;;;2.53;;
68176;SDS011;56478;50.982;7.032;2023-09-19T06:09:04;8.73;;;3.15;;
68176;SDS011;56478;50.982;7.032;2023-09-19T06:11:36;5.43;;;2.70;;
68176;SDS011;56478;50.982;7.032;2023-09-19T06:16:31;7.80;;;2.58;;
68176;SDS011;56478;50.982;7.032;2023-09-19T06:21:24;7.07;;;2.50;;
68176;SDS011;56478;50.982;7.032;2023-09-19T06:23:54;8.90;;;2.60;;
68176;SDS011;56478;50.982;7.032;2023-09-19T06:26:20;8.20;;;2.70;;
68176;SDS011;56478;50.982;7.032;2023-09-19T06:28:48;9.65;;;2.40;;
68176;SDS011;56478;50.982;7.032;2023-09-19T06:31:25;11.27;;;2.78;;
68176;SDS011;56478;50.982;7.032;2023-09-19T06:37:08;8.65;;;2.33;;
68176;SDS011;56478;50.982;7.032;2023-09-19T06:39:34;7.40;;;2.80;;
68176;SDS011;56478;50.982;7.032;2023-09-19T06:41:59;7.75;;;2.55;;
68176;SDS011;56478;50.982;7.032;2023-09-19T06:44:26;5.78;;;2.33;;
68176;SDS011;56478;50.982;7.032;2023-09-19T06:46:54;7.70;;;2.47;;
68176;SDS011;56478;50.982;7.032;2023-09-19T06:49:20;10.30;;;2.70;;
68176;SDS011;56478;50.982;7.032;2023-09-19T06:51:46;12.45;;;2.90;;
68176;SDS011;56478;50.982;7.032;2023-09-19T06:54:11;9.65;;;2.58;;
68176;SDS011;56478;50.982;7.032;2023-09-19T06:56:37;11.60;;;2.60;;
68176;SDS011;56478;50.982;7.032;2023-09-19T06:59:02;9.15;;;2.45;;
68176;SDS011;56478;50.982;7.032;2023-09-19T07:01:31;7.05;;;2.70;;
68176;SDS011;56478;50.982;7.032;2023-09-19T07:03:57;14.30;;;2.92;;
68176;SDS011;56478;50.982;7.032;2023-09-19T07:06:22;5.82;;;2.28;;
68176;SDS011;56478;50.982;7.032;2023-09-19T07:08:49;13.02;;;2.83;;
68176;SDS011;56478;50.982;7.032;2023-09-19T07:11:15;10.70;;;2.92;;
68176;SDS011;56478;50.982;7.032;2023-09-19T07:13:41;7.97;;;2.33;;
68176;SDS011;56478;50.982;7.032;2023-09-19T07:16:06;11.07;;;2.78;;
68176;SDS011;56478;50.982;7.032;2023-09-19T07:18:34;14.20;;;3.53;;
68176;SDS011;56478;50.982;7.032;2023-09-19T07:20:59;6.95;;;2.50;;
68176;SDS011;56478;50.982;7.032;2023-09-19T07:23:30;9.63;;;2.40;;
68176;SDS011;56478;50.982;7.032;2023-09-19T07:26:00;10.57;;;2.60;;
68176;SDS011;56478;50.982;7.032;2023-09-19T07:28:26;8.85;;;2.63;;
68176;SDS011;56478;50.982;7.032;2023-09-19T07:30:53;8.70;;;2.50;;
68176;SDS011;56478;50.982;7.032;2023-09-19T07:33:19;10.80;;;2.50;;
68176;SDS011;56478;50.982;7.032;2023-09-19T07:35:45;12.15;;;2.40;;
68176;SDS011;56478;50.982;7.032;2023-09-19T07:38:12;7.68;;;2.20;;
68176;SDS011;56478;50.982;7.032;2023-09-19T07:40:38;9.00;;;2.60;;
68176;SDS011;56478;50.982;7.032;2023-09-19T07:43:04;8.60;;;2.42;;
68176;SDS011;56478;50.982;7.032;2023-09-19T07:45:31;8.23;;;2.40;;
68176;SDS011;56478;50.982;7.032;2023-09-19T07:47:57;7.10;;;2.50;;
68176;SDS011;56478;50.982;7.032;2023-09-19T07:50:25;8.77;;;2.38;;
68176;SDS011;56478;50.982;7.032;2023-09-19T07:52:51;12.40;;;2.65;;
68176;SDS011;56478;50.982;7.032;2023-09-19T07:55:17;7.93;;;2.60;;
68176;SDS011;56478;50.982;7.032;2023-09-19T07:57:44;5.03;;;2.55;;
68176;SDS011;56478;50.982;7.032;2023-09-19T08:00:11;7.07;;;2.50;;
68176;SDS011;56478;50.982;7.032;2023-09-19T08:02:37;7.38;;;2.58;;
68176;SDS011;56478;50.982;7.032;2023-09-19T08:05:06;8.68;;;2.40;;
68176;SDS011;56478;50.982;7.032;2023-09-19T08:07:40;11.63;;;2.78;;
68176;SDS011;56478;50.982;7.032;2023-09-19T08:10:07;8.98;;;2.35;;
68176;SDS011;56478;50.982;7.032;2023-09-19T08:12:36;7.78;;;2.67;;
68176;SDS011;56478;50.982;7.032;2023-09-19T08:15:02;10.15;;;2.53;;
68176;SDS011;56478;50.982;7.032;2023-09-19T08:17:28;5.45;;;2.67;;
68176;SDS011;56478;50.982;7.032;2023-09-19T08:19:58;9.32;;;2.90;;
68176;SDS011;56478;50.982;7.032;2023-09-19T08:22:25;8.73;;;2.30;;
68176;SDS011;56478;50.982;7.032;2023-09-19T08:24:51;9.30;;;2.67;;
68176;SDS011;56478;50.982;7.032;2023-09-19T08:27:17;4.97;;;2.45;;
68176;SDS011;56478;50.982;7.032;2023-09-19T08:29:44;9.43;;;2.75;;
68176;SDS011;56478;50.982;7.032;2023-09-19T08:32:11;11.02;;;2.70;;
68176;SDS011;56478;50.982;7.032;2023-09-19T08:34:37;9.02;;;2.78;;
68176;SDS011;56478;50.982;7.032;2023-09-19T08:37:03;7.68;;;2.70;;
68176;SDS011;56478;50.982;7.032;2023-09-19T08:39:29;6.95;;;2.50;;
68176;SDS011;56478;50.982;7.032;2023-09-19T08:41:58;6.60;;;2.40;;
68176;SDS011;56478;50.982;7.032;2023-09-19T08:44:24;8.40;;;2.75;;
68176;SDS011;56478;50.982;7.032;2023-09-19T08:46:52;10.63;;;2.90;;
68176;SDS011;56478;50.982;7.032;2023-09-19T08:52:25;8.70;;;2.53;;
68176;SDS011;56478;50.982;7.032;2023-09-19T08:54:51;10.80;;;2.67;;
68176;SDS011;56478;50.982;7.032;2023-09-19T08:57:20;11.70;;;2.50;;
68176;SDS011;56478;50.982;7.032;2023-09-19T08:59:47;8.98;;;2.78;;
68176;SDS011;56478;50.982;7.032;2023-09-19T09:02:15;9.00;;;2.70;;
68176;SDS011;56478;50.982;7.032;2023-09-19T09:04:41;11.32;;;2.67;;
68176;SDS011;56478;50.982;7.032;2023-09-19T09:07:12;7.25;;;2.70;;
68176;SDS011;56478;50.982;7.032;2023-09-19T09:09:39;7.55;;;2.60;;
68176;SDS011;56478;50.982;7.032;2023-09-19T09:12:12;7.40;;;2.47;;
68176;SDS011;56478;50.982;7.032;2023-09-19T09:14:45;10.90;;;2.60;;
68176;SDS011;56478;50.982;7.032;2023-09-19T09:17:15;10.95;;;2.50;;
68176;SDS011;56478;50.982;7.032;2023-09-19T09:19:44;5.97;;;2.45;;
68176;SDS011;56478;50.982;7.032;2023-09-19T09:22:10;10.73;;;2.70;;
68176;SDS011;56478;50.982;7.032;2023-09-19T09:24:37;5.75;;;2.50;;
68176;SDS011;56478;50.982;7.032;2023-09-19T09:27:15;5.60;;;2.30;;
68176;SDS011;56478;50.982;7.032;2023-09-19T09:29:42;9.73;;;2.67;;
68176;SDS011;56478;50.982;7.032;2023-09-19T09:32:16;9.23;;;2.50;;
68176;SDS011;56478;50.982;7.032;2023-09-19T09:34:46;4.32;;;2.40;;
68176;SDS011;56478;50.982;7.032;2023-09-19T09:37:14;7.47;;;2.50;;
68176;SDS011;56478;50.982;7.032;2023-09-19T09:42:28;8.30;;;2.60;;
68176;SDS011;56478;50.982;7.032;2023-09-19T09:45:33;4.82;;;2.30;;
68176;SDS011;56478;50.982;7.032;2023-09-19T09:47:58;7.50;;;2.60;;
68176;SDS011;56478;50.982;7.032;2023-09-19T09:52:57;6.85;;;2.38;;
68176;SDS011;56478;50.982;7.032;2023-09-19T09:58:27;3.67;;;2.30;;
68176;SDS011;56478;50.982;7.032;2023-09-19T10:01:05;7.72;;;2.13;;
68176;SDS011;56478;50.982;7.032;2023-09-19T10:03:35;5.28;;;2.20;;
68176;SDS011;56478;50.982;7.032;2023-09-19T10:06:05;4.53;;;2.15;;
68176;SDS011;56478;50.982;7.032;2023-09-19T10:14:08;5.25;;;2.60;;
68176;SDS011;56478;50.982;7.032;2023-09-19T10:16:43;5.72;;;2.22;;
68176;SDS011;56478;50.982;7.032;2023-09-19T10:19:14;4.07;;;2.17;;
68176;SDS011;56478;50.982;7.032;2023-09-19T10:21:41;6.00;;;2.05;;
68176;SDS011;56478;50.982;7.032;2023-09-19T10:24:08;5.18;;;2.00;;
68176;SDS011;56478;50.982;7.032;2023-09-19T10:26:35;6.43;;;2.17;;
68176;SDS011;56478;50.982;7.032;2023-09-19T10:29:01;5.63;;;2.30;;
68176;SDS011;56478;50.982;7.032;2023-09-19T10:31:29;7.38;;;2.67;;
68176;SDS011;56478;50.982;7.032;2023-09-19T10:34:02;5.03;;;2.50;;
68176;SDS011;56478;50.982;7.032;2023-09-19T10:36:31;4.05;;;2.00;;
68176;SDS011;56478;50.982;7.032;2023-09-19T10:39:01;3.63;;;1.92;;
68176;SDS011;56478;50.982;7.032;2023-09-19T10:41:32;4.20;;;1.92;;
68176;SDS011;56478;50.982;7.032;2023-09-19T10:44:02;4.43;;;2.20;;
68176;SDS011;56478;50.982;7.032;2023-09-19T10:46:31;10.68;;;2.22;;
68176;SDS011;56478;50.982;7.032;2023-09-19T10:49:01;6.18;;;2.00;;
68176;SDS011;56478;50.982;7.032;2023-09-19T10:51:31;7.82;;;2.15;;
68176;SDS011;56478;50.982;7.032;2023-09-19T10:54:06;8.18;;;2.40;;
68176;SDS011;56478;50.982;7.032;2023-09-19T10:56:38;5.18;;;2.40;;
68176;SDS011;56478;50.982;7.032;2023-09-19T11:01:44;3.78;;;2.35;;
68176;SDS011;56478;50.982;7.032;2023-09-19T11:09:54;7.90;;;2.50;;
68176;SDS011;56478;50.982;7.032;2023-09-19T11:14:54;5.32;;;2.20;;
68176;SDS011;56478;50.982;7.032;2023-09-19T11:30:39;4.93;;;2.17;;
68176;SDS011;56478;50.982;7.032;2023-09-19T11:36:04;4.40;;;2.25;;
68176;SDS011;56478;50.982;7.032;2023-09-19T11:47:02;3.90;;;2.13;;
68176;SDS011;56478;50.982;7.032;2023-09-19T11:49:30;10.63;;;3.72;;
68176;SDS011;56478;50.982;7.032;2023-09-19T11:52:01;4.45;;;2.08;;
68176;SDS011;56478;50.982;7.032;2023-09-19T11:54:31;5.93;;;2.42;;
68176;SDS011;56478;50.982;7.032;2023-09-19T11:56:57;5.30;;;2.38;;
68176;SDS011;56478;50.982;7.032;2023-09-19T11:59:27;4.20;;;2.20;;
68176;SDS011;56478;50.982;7.032;2023-09-19T12:01:54;7.03;;;2.40;;
68176;SDS011;56478;50.982;7.032;2023-09-19T12:07:12;5.65;;;2.28;;
68176;SDS011;56478;50.982;7.032;2023-09-19T12:12:09;7.82;;;2.30;;
68176;SDS011;56478;50.982;7.032;2023-09-19T12:17:04;4.55;;;2.20;;
68176;SDS011;56478;50.982;7.032;2023-09-19T12:19:30;5.25;;;2.00;;
68176;SDS011;56478;50.982;7.032;2023-09-19T12:21:56;5.88;;;2.47;;
68176;SDS011;56478;50.982;7.032;2023-09-19T12:24:24;3.55;;;2.05;;
68176;SDS011;56478;50.982;7.032;2023-09-19T12:26:59;6.80;;;2.20;;
68176;SDS011;56478;50.982;7.032;2023-09-19T12:29:29;4.78;;;2.45;;
68176;SDS011;56478;50.982;7.032;2023-09-19T12:31:58;3.35;;;1.95;;
68176;SDS011;56478;50.982;7.032;2023-09-19T12:37:03;3.28;;;1.95;;
68176;SDS011;56478;50.982;7.032;2023-09-19T12:39:40;3.75;;;2.00;;
68176;SDS011;56478;50.982;7.032;2023-09-19T12:42:14;5.35;;;1.95;;
68176;SDS011;56478;50.982;7.032;2023-09-19T12:45:14;6.32;;;2.20;;
68176;SDS011;56478;50.982;7.032;2023-09-19T12:47:34;6.28;;;2.13;;
68176;SDS011;56478;50.982;7.032;2023-09-19T12:50:13;9.38;;;2.08;;
68176;SDS011;56478;50.982;7.032;2023-09-19T12:52:48;4.65;;;2.50;;
68176;SDS011;56478;50.982;7.032;2023-09-19T12:55:24;4.38;;;2.33;;
68176;SDS011;56478;50.982;7.032;2023-09-19T13:00:31;4.75;;;2.00;;
68176;SDS011;56478;50.982;7.032;2023-09-19T13:05:51;7.15;;;2.20;;
68176;SDS011;56478;50.982;7.032;2023-09-19T13:08:22;8.18;;;2.40;;
68176;SDS011;56478;50.982;7.032;2023-09-19T13:11:01;7.72;;;2.30;;
68176;SDS011;56478;50.982;7.032;2023-09-19T13:13:26;2.10;;;1.80;;
68176;SDS011;56478;50.982;7.032;2023-09-19T13:15:53;8.38;;;2.10;;
68176;SDS011;56478;50.982;7.032;2023-09-19T13:18:22;6.07;;;2.00;;
68176;SDS011;56478;50.982;7.032;2023-09-19T13:21:10;4.63;;;2.10;;
68176;SDS011;56478;50.982;7.032;2023-09-19T13:23:55;6.25;;;1.98;;
68176;SDS011;56478;50.982;7.032;2023-09-19T13:26:27;9.15;;;1.95;;
68176;SDS011;56478;50.982;7.032;2023-09-19T13:28:53;3.88;;;1.90;;
68176;SDS011;56478;50.982;7.032;2023-09-19T13:31:19;6.88;;;2.00;;
68176;SDS011;56478;50.982;7.032;2023-09-19T13:33:46;3.97;;;1.83;;
68176;SDS011;56478;50.982;7.032;2023-09-19T13:38:42;2.30;;;1.63;;
68176;SDS011;56478;50.982;7.032;2023-09-19T13:41:11;4.70;;;1.60;;
68176;SDS011;56478;50.982;7.032;2023-09-19T13:43:37;4.75;;;2.10;;
68176;SDS011;56478;50.982;7.032;2023-09-19T13:46:04;7.53;;;1.75;;
68176;SDS011;56478;50.982;7.032;2023-09-19T13:48:33;2.30;;;1.60;;
68176;SDS011;56478;50.982;7.032;2023-09-19T13:51:01;6.43;;;1.90;;
68176;SDS011;56478;50.982;7.032;2023-09-19T13:53:28;5.22;;;1.80;;
68176;SDS011;56478;50.982;7.032;2023-09-19T13:55:54;2.67;;;1.55;;
68176;SDS011;56478;50.982;7.032;2023-09-19T13:58:20;5.80;;;1.80;;
68176;SDS011;56478;50.982;7.032;2023-09-19T14:00:47;2.65;;;1.67;;
68176;SDS011;56478;50.982;7.032;2023-09-19T14:03:13;3.33;;;1.60;;
68176;SDS011;56478;50.982;7.032;2023-09-19T14:05:39;4.05;;;1.83;;
68176;SDS011;56478;50.982;7.032;2023-09-19T14:08:04;6.00;;;1.63;;
68176;SDS011;56478;50.982;7.032;2023-09-19T14:10:42;3.47;;;1.80;;
68176;SDS011;56478;50.982;7.032;2023-09-19T14:13:07;3.75;;;1.73;;
68176;SDS011;56478;50.982;7.032;2023-09-19T14:15:36;5.32;;;1.58;;
68176;SDS011;56478;50.982;7.032;2023-09-19T14:18:03;6.47;;;1.50;;
68176;SDS011;56478;50.982;7.032;2023-09-19T14:20:29;2.05;;;1.50;;
68176;SDS011;56478;50.982;7.032;2023-09-19T14:22:56;4.30;;;1.80;;
68176;SDS011;56478;50.982;7.032;2023-09-19T14:25:23;4.18;;;1.60;;
68176;SDS011;56478;50.982;7.032;2023-09-19T14:27:53;18.55;;;1.98;;
68176;SDS011;56478;50.982;7.032;2023-09-19T14:30:18;3.92;;;1.73;;
68176;SDS011;56478;50.982;7.032;2023-09-19T14:32:44;7.90;;;1.70;;
68176;SDS011;56478;50.982;7.032;2023-09-19T14:35:10;4.53;;;1.70;;
68176;SDS011;56478;50.982;7.032;2023-09-19T14:37:36;2.67;;;1.50;;
68176;SDS011;56478;50.982;7.032;2023-09-19T14:40:03;1.65;;;1.38;;
68176;SDS011;56478;50.982;7.032;2023-09-19T14:42:34;2.67;;;1.40;;
68176;SDS011;56478;50.982;7.032;2023-09-19T14:45:04;4.30;;;1.60;;
68176;SDS011;56478;50.982;7.032;2023-09-19T14:47:31;2.78;;;1.75;;
68176;SDS011;56478;50.982;7.032;2023-09-19T14:50:02;3.00;;;1.63;;
68176;SDS011;56478;50.982;7.032;2023-09-19T14:52:31;3.83;;;1.50;;
68176;SDS011;56478;50.982;7.032;2023-09-19T14:54:57;3.30;;;1.60;;
68176;SDS011;56478;50.982;7.032;2023-09-19T14:57:23;3.90;;;1.67;;
68176;SDS011;56478;50.982;7.032;2023-09-19T14:59:49;4.95;;;1.92;;
68176;SDS011;56478;50.982;7.032;2023-09-19T15:02:15;2.00;;;1.70;;
68176;SDS011;56478;50.982;7.032;2023-09-19T15:04:42;2.97;;;1.70;;
68176;SDS011;56478;50.982;7.032;2023-09-19T15:07:13;2.92;;;2.17;;
68176;SDS011;56478;50.982;7.032;2023-09-19T15:09:40;3.97;;;1.70;;
68176;SDS011;56478;50.982;7.032;2023-09-19T15:12:06;2.60;;;1.70;;
68176;SDS011;56478;50.982;7.032;2023-09-19T15:14:32;2.80;;;1.48;;
68176;SDS011;56478;50.982;7.032;2023-09-19T15:16:58;3.00;;;1.58;;
68176;SDS011;56478;50.982;7.032;2023-09-19T15:19:23;4.07;;;1.77;;
68176;SDS011;56478;50.982;7.032;2023-09-19T15:21:49;2.00;;;1.70;;
68176;SDS011;56478;50.982;7.032;2023-09-19T15:24:14;2.78;;;1.50;;
68176;SDS011;56478;50.982;7.032;2023-09-19T15:26:42;3.65;;;1.55;;
68176;SDS011;56478;50.982;7.032;2023-09-19T15:29:10;2.50;;;1.50;;
68176;SDS011;56478;50.982;7.032;2023-09-19T15:31:36;7.88;;;1.75;;
68176;SDS011;56478;50.982;7.032;2023-09-19T15:34:04;3.88;;;1.50;;
68176;SDS011;56478;50.982;7.032;2023-09-19T15:36:31;2.35;;;1.40;;
68176;SDS011;56478;50.982;7.032;2023-09-19T15:38:58;2.13;;;1.45;;
68176;SDS011;56478;50.982;7.032;2023-09-19T15:41:26;4.10;;;1.60;;
68176;SDS011;56478;50.982;7.032;2023-09-19T15:43:56;4.88;;;1.85;;
68176;SDS011;56478;50.982;7.032;2023-09-19T15:46:22;9.68;;;1.67;;
68176;SDS011;56478;50.982;7.032;2023-09-19T15:48:48;3.83;;;1.60;;
68176;SDS011;56478;50.982;7.032;2023-09-19T15:51:15;3.15;;;1.70;;
68176;SDS011;56478;50.982;7.032;2023-09-19T15:53:45;3.33;;;1.70;;
68176;SDS011;56478;50.982;7.032;2023-09-19T15:56:18;3.58;;;1.55;;
68176;SDS011;56478;50.982;7.032;2023-09-19T15:58:46;2.05;;;1.60;;
68176;SDS011;56478;50.982;7.032;2023-09-19T16:01:13;3.80;;;1.77;;
68176;SDS011;56478;50.982;7.032;2023-09-19T16:03:43;2.72;;;1.60;;
68176;SDS011;56478;50.982;7.032;2023-09-19T16:06:11;6.05;;;1.60;;
68176;SDS011;56478;50.982;7.032;2023-09-19T16:08:45;3.58;;;1.75;;
68176;SDS011;56478;50.982;7.032;2023-09-19T16:11:12;4.10;;;1.80;;
68176;SDS011;56478;50.982;7.032;2023-09-19T16:13:38;3.50;;;2.15;;
68176;SDS011;56478;50.982;7.032;2023-09-19T16:16:06;4.38;;;1.67;;
68176;SDS011;56478;50.982;7.032;2023-09-19T16:18:33;8.25;;;1.83;;
68176;SDS011;56478;50.982;7.032;2023-09-19T16:21:02;3.40;;;1.80;;
68176;SDS011;56478;50.982;7.032;2023-09-19T16:23:28;4.57;;;1.90;;
68176;SDS011;56478;50.982;7.032;2023-09-19T16:26:00;3.53;;;1.73;;
68176;SDS011;56478;50.982;7.032;2023-09-19T16:28:34;4.97;;;2.22;;
68176;SDS011;56478;50.982;7.032;2023-09-19T16:31:01;5.32;;;1.88;;
68176;SDS011;56478;50.982;7.032;2023-09-19T16:33:28;7.15;;;1.92;;
68176;SDS011;56478;50.982;7.032;2023-09-19T16:35:54;7.03;;;1.80;;
68176;SDS011;56478;50.982;7.032;2023-09-19T16:38:21;3.72;;;1.75;;